EIA706U EVRA-EHEH
Flight info
| Callsign | EIA706U |
|---|---|
| Flight time | 1h 58m |
| Altitude | 38000 |
| Route | VALED M869 LUKED M405 VARUS DCT KOLJA DCT SALLO/N0462F390 M726 ROSOK/N0459F380 T906 RAMAR L23 STADE DCT SOGPO DCT RUMER |
| Aircraft | B738/M-SDE2E3FGHIRWXY/LB1 |
Departure
| Time | 2026-05-05 18:50 |
|---|---|
| Airport | Riga International Airport (EVRA) |
Arrival
| Time | 2026-05-05 20:48 |
|---|---|
| Airport | Eindhoven Airport (EHEH) |
| Time | Latitude | Longitude | Altitude | Speed | Heading |
|---|---|---|---|---|---|
| 2026-05-05 18:24 | 56.93034 | 23.97776 | 43 ft | 0 kts | 5° |
| 2026-05-05 18:25 | 56.93033 | 23.97776 | 43 ft | 0 kts | 5° |
| 2026-05-05 18:43 | 56.93030 | 23.97776 | 43 ft | 3 kts | 5° |
| 2026-05-05 18:43 | 56.93004 | 23.97771 | 39 ft | 4 kts | 5° |
| 2026-05-05 18:44 | 56.92977 | 23.97767 | 42 ft | 4 kts | 5° |
| 2026-05-05 18:44 | 56.92956 | 23.97765 | 40 ft | 4 kts | 341° |
| 2026-05-05 18:44 | 56.92940 | 23.97792 | 43 ft | 4 kts | 283° |
| 2026-05-05 18:44 | 56.92937 | 23.97821 | 43 ft | 4 kts | 275° |
| 2026-05-05 18:45 | 56.92937 | 23.97831 | 43 ft | 0 kts | 275° |
| 2026-05-05 18:47 | 56.92937 | 23.97820 | 43 ft | 3 kts | 275° |
| 2026-05-05 18:47 | 56.92942 | 23.97721 | 41 ft | 11 kts | 275° |
| 2026-05-05 18:47 | 56.92949 | 23.97577 | 43 ft | 11 kts | 275° |
| 2026-05-05 18:48 | 56.92956 | 23.97437 | 44 ft | 7 kts | 275° |
| 2026-05-05 18:48 | 56.92957 | 23.97411 | 44 ft | 0 kts | 275° |
| 2026-05-05 18:48 | 56.92958 | 23.97403 | 44 ft | 3 kts | 275° |
| 2026-05-05 18:49 | 56.92962 | 23.97281 | 44 ft | 15 kts | 261° |
| 2026-05-05 18:49 | 56.92826 | 23.97193 | 45 ft | 47 kts | 185° |
| 2026-05-05 18:49 | 56.92206 | 23.97088 | 44 ft | 129 kts | 185° |
| 2026-05-05 18:49 | 56.91104 | 23.96912 | 230 ft | 177 kts | 185° |
| 2026-05-05 18:50 | 56.89899 | 23.96725 | 1265 ft | 170 kts | 186° |
| 2026-05-05 18:50 | 56.88724 | 23.96532 | 2148 ft | 178 kts | 189° |
| 2026-05-05 18:50 | 56.87410 | 23.96265 | 2531 ft | 210 kts | 189° |
| 2026-05-05 18:50 | 56.85935 | 23.95953 | 3154 ft | 215 kts | 191° |
| 2026-05-05 18:51 | 56.84563 | 23.94912 | 3713 ft | 221 kts | 222° |
| 2026-05-05 18:51 | 56.83742 | 23.92586 | 4259 ft | 225 kts | 253° |
| 2026-05-05 18:51 | 56.83423 | 23.89754 | 4758 ft | 240 kts | 261° |
| 2026-05-05 18:51 | 56.83208 | 23.86657 | 5402 ft | 250 kts | 262° |
| 2026-05-05 18:52 | 56.83013 | 23.83516 | 6419 ft | 250 kts | 262° |
| 2026-05-05 18:52 | 56.82820 | 23.80392 | 7397 ft | 249 kts | 262° |
| 2026-05-05 18:52 | 56.82622 | 23.77238 | 8355 ft | 251 kts | 262° |
| 2026-05-05 18:52 | 56.82417 | 23.74066 | 9303 ft | 253 kts | 261° |
| 2026-05-05 18:53 | 56.82207 | 23.70863 | 10201 ft | 256 kts | 261° |
| 2026-05-05 18:53 | 56.81983 | 23.67528 | 10535 ft | 279 kts | 261° |
| 2026-05-05 18:53 | 56.81732 | 23.63836 | 10746 ft | 305 kts | 262° |
| 2026-05-05 18:53 | 56.81457 | 23.59849 | 10934 ft | 328 kts | 262° |
| 2026-05-05 18:54 | 56.81163 | 23.55596 | 11230 ft | 346 kts | 262° |
| 2026-05-05 18:54 | 56.80857 | 23.51199 | 11890 ft | 351 kts | 262° |
| 2026-05-05 18:54 | 56.80547 | 23.46772 | 12669 ft | 353 kts | 262° |
| 2026-05-05 18:54 | 56.80231 | 23.42296 | 13337 ft | 358 kts | 262° |
| 2026-05-05 18:55 | 56.79909 | 23.37765 | 14027 ft | 362 kts | 262° |
| 2026-05-05 18:55 | 56.79583 | 23.33213 | 14753 ft | 362 kts | 262° |
| 2026-05-05 18:55 | 56.79254 | 23.28641 | 15461 ft | 364 kts | 262° |
| 2026-05-05 18:55 | 56.78924 | 23.24082 | 16132 ft | 366 kts | 262° |
| 2026-05-05 18:56 | 56.78589 | 23.19486 | 16782 ft | 369 kts | 262° |
| 2026-05-05 18:56 | 56.78249 | 23.14839 | 17438 ft | 371 kts | 261° |
| 2026-05-05 18:56 | 56.77906 | 23.10187 | 18063 ft | 373 kts | 261° |
| 2026-05-05 18:56 | 56.77556 | 23.05470 | 18610 ft | 376 kts | 261° |
| 2026-05-05 18:57 | 56.77203 | 23.00730 | 19144 ft | 378 kts | 261° |
| 2026-05-05 18:57 | 56.76858 | 22.96111 | 19665 ft | 381 kts | 261° |
| 2026-05-05 18:57 | 56.76497 | 22.91317 | 20193 ft | 383 kts | 261° |
| 2026-05-05 18:57 | 56.76133 | 22.86499 | 20701 ft | 385 kts | 260° |
| 2026-05-05 18:58 | 56.75767 | 22.81693 | 21198 ft | 387 kts | 260° |
| 2026-05-05 18:58 | 56.75394 | 22.76815 | 21682 ft | 389 kts | 260° |
| 2026-05-05 18:58 | 56.75017 | 22.71914 | 22197 ft | 392 kts | 260° |
| 2026-05-05 18:58 | 56.74637 | 22.66991 | 22670 ft | 394 kts | 259° |
| 2026-05-05 18:59 | 56.74258 | 22.62113 | 23121 ft | 396 kts | 259° |
| 2026-05-05 18:59 | 56.73870 | 22.57135 | 23543 ft | 398 kts | 259° |
| 2026-05-05 18:59 | 56.73476 | 22.52124 | 23902 ft | 400 kts | 259° |
| 2026-05-05 18:59 | 56.73081 | 22.47116 | 24246 ft | 402 kts | 259° |
| 2026-05-05 19:00 | 56.72680 | 22.42054 | 24590 ft | 405 kts | 259° |
| 2026-05-05 19:00 | 56.72278 | 22.36975 | 24928 ft | 407 kts | 259° |
| 2026-05-05 19:00 | 56.71870 | 22.31874 | 25265 ft | 408 kts | 259° |
| 2026-05-05 19:00 | 56.71455 | 22.26747 | 25584 ft | 410 kts | 259° |
| 2026-05-05 19:01 | 56.71037 | 22.21590 | 25891 ft | 413 kts | 259° |
| 2026-05-05 19:01 | 56.70614 | 22.16408 | 26188 ft | 415 kts | 259° |
| 2026-05-05 19:01 | 56.70188 | 22.11212 | 26481 ft | 417 kts | 259° |
| 2026-05-05 19:01 | 56.69758 | 22.05991 | 26840 ft | 417 kts | 259° |
| 2026-05-05 19:02 | 56.69329 | 22.00791 | 27237 ft | 417 kts | 259° |
| 2026-05-05 19:02 | 56.68908 | 21.95724 | 27580 ft | 417 kts | 259° |
| 2026-05-05 19:02 | 56.68474 | 21.90523 | 28008 ft | 416 kts | 259° |
| 2026-05-05 19:02 | 56.68038 | 21.85342 | 28465 ft | 414 kts | 259° |
| 2026-05-05 19:03 | 56.67602 | 21.80177 | 28905 ft | 413 kts | 259° |
| 2026-05-05 19:03 | 56.67165 | 21.75030 | 29337 ft | 412 kts | 259° |
| 2026-05-05 19:03 | 56.66725 | 21.69884 | 29768 ft | 411 kts | 259° |
| 2026-05-05 19:03 | 56.66290 | 21.64807 | 30161 ft | 410 kts | 259° |
| 2026-05-05 19:04 | 56.65851 | 21.59718 | 30502 ft | 409 kts | 259° |
| 2026-05-05 19:04 | 56.65410 | 21.54631 | 30825 ft | 409 kts | 259° |
| 2026-05-05 19:04 | 56.64966 | 21.49526 | 31171 ft | 408 kts | 259° |
| 2026-05-05 19:04 | 56.64520 | 21.44433 | 31500 ft | 408 kts | 259° |
| 2026-05-05 19:05 | 56.64073 | 21.39347 | 31827 ft | 408 kts | 259° |
| 2026-05-05 19:05 | 56.63624 | 21.34258 | 32131 ft | 409 kts | 260° |
| 2026-05-05 19:05 | 56.63171 | 21.29150 | 32311 ft | 411 kts | 260° |
| 2026-05-05 19:05 | 56.62714 | 21.24031 | 32634 ft | 410 kts | 260° |
| 2026-05-05 19:06 | 56.62257 | 21.18933 | 33027 ft | 408 kts | 260° |
| 2026-05-05 19:06 | 56.61800 | 21.13859 | 33395 ft | 406 kts | 260° |
| 2026-05-05 19:06 | 56.61342 | 21.08798 | 33699 ft | 406 kts | 260° |
| 2026-05-05 19:06 | 56.60882 | 21.03740 | 33986 ft | 406 kts | 260° |
| 2026-05-05 19:07 | 56.60434 | 20.98843 | 34225 ft | 406 kts | 260° |
| 2026-05-05 19:07 | 56.59971 | 20.93793 | 34429 ft | 407 kts | 260° |
| 2026-05-05 19:07 | 56.59503 | 20.88718 | 34642 ft | 408 kts | 260° |
| 2026-05-05 19:07 | 56.59033 | 20.83646 | 34872 ft | 408 kts | 259° |
| 2026-05-05 19:08 | 56.58560 | 20.78565 | 35093 ft | 408 kts | 259° |
| 2026-05-05 19:08 | 56.58085 | 20.73485 | 35291 ft | 409 kts | 259° |
| 2026-05-05 19:08 | 56.57608 | 20.68397 | 35507 ft | 410 kts | 260° |
| 2026-05-05 19:08 | 56.57125 | 20.63278 | 35604 ft | 413 kts | 260° |
| 2026-05-05 19:09 | 56.56638 | 20.58142 | 35818 ft | 413 kts | 260° |
| 2026-05-05 19:09 | 56.56150 | 20.53013 | 36081 ft | 412 kts | 259° |
| 2026-05-05 19:09 | 56.55661 | 20.47902 | 36310 ft | 412 kts | 259° |
| 2026-05-05 19:09 | 56.55169 | 20.42776 | 36498 ft | 413 kts | 259° |
| 2026-05-05 19:10 | 56.54681 | 20.37726 | 36691 ft | 413 kts | 259° |
| 2026-05-05 19:10 | 56.54185 | 20.32604 | 36910 ft | 413 kts | 259° |
| 2026-05-05 19:10 | 56.53687 | 20.27491 | 37069 ft | 413 kts | 259° |
| 2026-05-05 19:10 | 56.53188 | 20.22369 | 37234 ft | 414 kts | 259° |
| 2026-05-05 19:11 | 56.52684 | 20.17231 | 37430 ft | 414 kts | 259° |
| 2026-05-05 19:11 | 56.52177 | 20.12098 | 37630 ft | 414 kts | 259° |
| 2026-05-05 19:11 | 56.51560 | 20.07006 | 37799 ft | 414 kts | 253° |
| 2026-05-05 19:11 | 56.50650 | 20.02062 | 37939 ft | 415 kts | 251° |
| 2026-05-05 19:12 | 56.48795 | 19.92315 | 37930 ft | 416 kts | 252° |
| 2026-05-05 19:12 | 56.47224 | 19.82278 | 37928 ft | 413 kts | 255° |
| 2026-05-05 19:13 | 56.45807 | 19.72229 | 37927 ft | 412 kts | 256° |
| 2026-05-05 19:13 | 56.44384 | 19.62209 | 37935 ft | 411 kts | 255° |
| 2026-05-05 19:14 | 56.42940 | 19.52222 | 37922 ft | 410 kts | 255° |
| 2026-05-05 19:14 | 56.41486 | 19.42281 | 37921 ft | 410 kts | 255° |
| 2026-05-05 19:15 | 56.40019 | 19.32331 | 37937 ft | 411 kts | 255° |
| 2026-05-05 19:15 | 56.38541 | 19.22370 | 37934 ft | 412 kts | 255° |
| 2026-05-05 19:16 | 56.37051 | 19.12384 | 37933 ft | 413 kts | 255° |
| 2026-05-05 19:16 | 56.35572 | 19.02538 | 37936 ft | 413 kts | 255° |
| 2026-05-05 19:17 | 56.34077 | 18.92639 | 37924 ft | 414 kts | 255° |
| 2026-05-05 19:17 | 56.32554 | 18.82622 | 37926 ft | 415 kts | 255° |
| 2026-05-05 19:18 | 56.31029 | 18.72648 | 37930 ft | 415 kts | 255° |
| 2026-05-05 19:18 | 56.29493 | 18.62667 | 37945 ft | 415 kts | 255° |
| 2026-05-05 19:19 | 56.27951 | 18.52705 | 37926 ft | 414 kts | 254° |
| 2026-05-05 19:19 | 56.26398 | 18.42728 | 37899 ft | 414 kts | 254° |
| 2026-05-05 19:20 | 56.24842 | 18.32794 | 37915 ft | 413 kts | 254° |
| 2026-05-05 19:20 | 56.23286 | 18.22920 | 37925 ft | 413 kts | 254° |
| 2026-05-05 19:21 | 56.21712 | 18.12987 | 37930 ft | 413 kts | 254° |
| 2026-05-05 19:21 | 56.20131 | 18.03068 | 37929 ft | 413 kts | 254° |
| 2026-05-05 19:22 | 56.18565 | 17.93301 | 37934 ft | 413 kts | 254° |
| 2026-05-05 19:22 | 56.16966 | 17.83387 | 37921 ft | 413 kts | 254° |
| 2026-05-05 19:23 | 56.15361 | 17.73490 | 37919 ft | 413 kts | 254° |
| 2026-05-05 19:23 | 56.13749 | 17.63611 | 37922 ft | 413 kts | 253° |
| 2026-05-05 19:24 | 56.12129 | 17.53732 | 37889 ft | 413 kts | 253° |
| 2026-05-05 19:24 | 56.10502 | 17.43876 | 37917 ft | 413 kts | 253° |
| 2026-05-05 19:25 | 56.08875 | 17.34066 | 37925 ft | 413 kts | 253° |
| 2026-05-05 19:25 | 56.07228 | 17.24197 | 37917 ft | 414 kts | 253° |
| 2026-05-05 19:26 | 56.05572 | 17.14328 | 37913 ft | 414 kts | 253° |
| 2026-05-05 19:26 | 56.03909 | 17.04471 | 37906 ft | 414 kts | 253° |
| 2026-05-05 19:27 | 56.02266 | 16.94775 | 37907 ft | 414 kts | 253° |
| 2026-05-05 19:27 | 56.00587 | 16.84930 | 37922 ft | 414 kts | 253° |
| 2026-05-05 19:28 | 55.98311 | 16.75493 | 37934 ft | 415 kts | 243° |
| 2026-05-05 19:28 | 55.95586 | 16.66409 | 37918 ft | 415 kts | 243° |
| 2026-05-05 19:29 | 55.92867 | 16.57327 | 37915 ft | 415 kts | 243° |
| 2026-05-05 19:29 | 55.90158 | 16.48245 | 37914 ft | 415 kts | 243° |
| 2026-05-05 19:30 | 55.87463 | 16.39218 | 37916 ft | 415 kts | 243° |
| 2026-05-05 19:30 | 55.84749 | 16.30153 | 37917 ft | 416 kts | 243° |
| 2026-05-05 19:31 | 55.82024 | 16.21088 | 37915 ft | 416 kts | 243° |
| 2026-05-05 19:31 | 55.79291 | 16.12030 | 37916 ft | 416 kts | 243° |
| 2026-05-05 19:32 | 55.76996 | 16.04454 | 37918 ft | 415 kts | 243° |
| 2026-05-05 19:32 | 55.74319 | 15.95644 | 37913 ft | 415 kts | 243° |
| 2026-05-05 19:33 | 55.71569 | 15.86631 | 37930 ft | 415 kts | 243° |
| 2026-05-05 19:33 | 55.68832 | 15.77692 | 37926 ft | 415 kts | 243° |
| 2026-05-05 19:34 | 55.66068 | 15.68700 | 37917 ft | 416 kts | 243° |
| 2026-05-05 19:35 | 55.61910 | 15.55236 | 37915 ft | 415 kts | 243° |
| 2026-05-05 19:35 | 55.59132 | 15.46283 | 37887 ft | 415 kts | 243° |
| 2026-05-05 19:36 | 55.56350 | 15.37353 | 37906 ft | 414 kts | 243° |
| 2026-05-05 19:36 | 55.53567 | 15.28448 | 37917 ft | 414 kts | 242° |
| 2026-05-05 19:37 | 55.50775 | 15.19553 | 37917 ft | 414 kts | 242° |
| 2026-05-05 19:37 | 55.47978 | 15.10672 | 37919 ft | 415 kts | 242° |
| 2026-05-05 19:38 | 55.45172 | 15.01796 | 37914 ft | 415 kts | 242° |
| 2026-05-05 19:38 | 55.42403 | 14.93068 | 37916 ft | 415 kts | 242° |
| 2026-05-05 19:39 | 55.39583 | 14.84213 | 37877 ft | 415 kts | 242° |
| 2026-05-05 19:39 | 55.36763 | 14.75391 | 37906 ft | 414 kts | 242° |
| 2026-05-05 19:40 | 55.33936 | 14.66579 | 37914 ft | 413 kts | 242° |
| 2026-05-05 19:40 | 55.31106 | 14.57791 | 37916 ft | 413 kts | 242° |
| 2026-05-05 19:41 | 55.28269 | 14.49011 | 37917 ft | 414 kts | 242° |
| 2026-05-05 19:41 | 55.25424 | 14.40239 | 37923 ft | 414 kts | 242° |
| 2026-05-05 19:42 | 55.22571 | 14.31476 | 37908 ft | 414 kts | 242° |
| 2026-05-05 19:42 | 55.19733 | 14.22790 | 37913 ft | 414 kts | 242° |
| 2026-05-05 19:43 | 55.16870 | 14.14058 | 37917 ft | 414 kts | 242° |
| 2026-05-05 19:43 | 55.14000 | 14.05336 | 37914 ft | 414 kts | 241° |
| 2026-05-05 19:44 | 55.11160 | 13.96736 | 37915 ft | 414 kts | 241° |
| 2026-05-05 19:44 | 55.08296 | 13.88094 | 37912 ft | 414 kts | 241° |
| 2026-05-05 19:45 | 55.05390 | 13.79356 | 37920 ft | 414 kts | 241° |
| 2026-05-05 19:45 | 55.02494 | 13.70681 | 37912 ft | 414 kts | 241° |
| 2026-05-05 19:46 | 54.99226 | 13.62520 | 37925 ft | 415 kts | 232° |
| 2026-05-05 19:46 | 54.95465 | 13.54975 | 37921 ft | 415 kts | 231° |
| 2026-05-05 19:47 | 54.91681 | 13.47383 | 37914 ft | 416 kts | 231° |
| 2026-05-05 19:47 | 54.87911 | 13.39767 | 37911 ft | 416 kts | 232° |
| 2026-05-05 19:48 | 54.84157 | 13.32172 | 37913 ft | 416 kts | 232° |
| 2026-05-05 19:48 | 54.80389 | 13.24564 | 37912 ft | 416 kts | 231° |
| 2026-05-05 19:49 | 54.76624 | 13.16988 | 37906 ft | 414 kts | 231° |
| 2026-05-05 19:49 | 54.72864 | 13.09443 | 37912 ft | 413 kts | 231° |
| 2026-05-05 19:50 | 54.69105 | 13.01925 | 37920 ft | 414 kts | 231° |
| 2026-05-05 19:50 | 54.65404 | 12.94545 | 37911 ft | 414 kts | 231° |
| 2026-05-05 19:51 | 54.61631 | 12.87046 | 37914 ft | 414 kts | 231° |
| 2026-05-05 19:51 | 54.57853 | 12.79559 | 37894 ft | 413 kts | 231° |
| 2026-05-05 19:52 | 54.54079 | 12.72104 | 37908 ft | 412 kts | 231° |
| 2026-05-05 19:52 | 54.50307 | 12.64675 | 37915 ft | 412 kts | 230° |
| 2026-05-05 19:53 | 54.46537 | 12.57273 | 37912 ft | 411 kts | 230° |
| 2026-05-05 19:53 | 54.42763 | 12.49885 | 37912 ft | 411 kts | 230° |
| 2026-05-05 19:54 | 54.38990 | 12.42520 | 37915 ft | 411 kts | 230° |
| 2026-05-05 19:54 | 54.35221 | 12.35187 | 37908 ft | 411 kts | 230° |
| 2026-05-05 19:55 | 54.31432 | 12.27835 | 37915 ft | 412 kts | 230° |
| 2026-05-05 19:55 | 54.27632 | 12.20482 | 37913 ft | 413 kts | 230° |
| 2026-05-05 19:56 | 54.23823 | 12.13133 | 37910 ft | 413 kts | 230° |
| 2026-05-05 19:56 | 54.20078 | 12.05684 | 37906 ft | 413 kts | 234° |
| 2026-05-05 19:57 | 54.16762 | 11.97976 | 37911 ft | 413 kts | 235° |
| 2026-05-05 19:57 | 54.13382 | 11.90054 | 37910 ft | 414 kts | 235° |
| 2026-05-05 19:58 | 54.09974 | 11.82132 | 37916 ft | 415 kts | 234° |
| 2026-05-05 19:58 | 54.06541 | 11.74207 | 37908 ft | 416 kts | 234° |
| 2026-05-05 19:59 | 54.03090 | 11.66274 | 37904 ft | 417 kts | 234° |
| 2026-05-05 19:59 | 53.99630 | 11.58349 | 37903 ft | 418 kts | 234° |
| 2026-05-05 20:00 | 53.96163 | 11.50430 | 37898 ft | 418 kts | 234° |
| 2026-05-05 20:00 | 53.92692 | 11.42526 | 37903 ft | 418 kts | 234° |
| 2026-05-05 20:01 | 53.89208 | 11.34617 | 37898 ft | 419 kts | 234° |
| 2026-05-05 20:01 | 53.85717 | 11.26716 | 37895 ft | 419 kts | 234° |
| 2026-05-05 20:02 | 53.82213 | 11.18813 | 37894 ft | 420 kts | 233° |
| 2026-05-05 20:02 | 53.78703 | 11.10916 | 37899 ft | 420 kts | 233° |
| 2026-05-05 20:03 | 53.75183 | 11.03024 | 37907 ft | 420 kts | 233° |
| 2026-05-05 20:03 | 53.72192 | 10.94854 | 37914 ft | 420 kts | 248° |
| 2026-05-05 20:04 | 53.70737 | 10.85322 | 37901 ft | 424 kts | 264° |
| 2026-05-05 20:04 | 53.70437 | 10.75412 | 37908 ft | 425 kts | 265° |
| 2026-05-05 20:05 | 53.70162 | 10.65447 | 37912 ft | 425 kts | 265° |
| 2026-05-05 20:05 | 53.69843 | 10.55486 | 37906 ft | 425 kts | 264° |
| 2026-05-05 20:06 | 53.69500 | 10.45522 | 37907 ft | 425 kts | 264° |
| 2026-05-05 20:06 | 53.69152 | 10.35674 | 37904 ft | 426 kts | 264° |
| 2026-05-05 20:07 | 53.68793 | 10.25746 | 37901 ft | 426 kts | 263° |
| 2026-05-05 20:07 | 53.67575 | 10.16042 | 37908 ft | 422 kts | 247° |
| 2026-05-05 20:08 | 53.65275 | 10.06928 | 37907 ft | 422 kts | 246° |
| 2026-05-05 20:08 | 53.63009 | 9.98050 | 37916 ft | 422 kts | 246° |
| 2026-05-05 20:09 | 53.60710 | 9.88941 | 37910 ft | 423 kts | 246° |
| 2026-05-05 20:09 | 53.58415 | 9.79829 | 37900 ft | 423 kts | 246° |
| 2026-05-05 20:10 | 53.56115 | 9.70728 | 37916 ft | 423 kts | 246° |
| 2026-05-05 20:10 | 53.53805 | 9.61624 | 37905 ft | 423 kts | 246° |
| 2026-05-05 20:11 | 53.51489 | 9.52531 | 37903 ft | 424 kts | 246° |
| 2026-05-05 20:11 | 53.48997 | 9.43573 | 37890 ft | 423 kts | 238° |
| 2026-05-05 20:12 | 53.45507 | 9.35641 | 37881 ft | 423 kts | 232° |
| 2026-05-05 20:12 | 53.41919 | 9.27820 | 37896 ft | 423 kts | 232° |
| 2026-05-05 20:13 | 53.38361 | 9.20027 | 37875 ft | 424 kts | 232° |
| 2026-05-05 20:13 | 53.34781 | 9.12162 | 37881 ft | 425 kts | 232° |
| 2026-05-05 20:14 | 53.31174 | 9.04247 | 37882 ft | 425 kts | 232° |
| 2026-05-05 20:14 | 53.27657 | 8.96550 | 37886 ft | 426 kts | 232° |
| 2026-05-05 20:15 | 53.24058 | 8.88696 | 37883 ft | 426 kts | 232° |
| 2026-05-05 20:15 | 53.20455 | 8.80861 | 37882 ft | 426 kts | 232° |
| 2026-05-05 20:16 | 53.16845 | 8.73036 | 37885 ft | 426 kts | 232° |
| 2026-05-05 20:16 | 53.13228 | 8.65220 | 37890 ft | 426 kts | 232° |
| 2026-05-05 20:17 | 53.09601 | 8.57405 | 37883 ft | 427 kts | 232° |
| 2026-05-05 20:17 | 53.05969 | 8.49606 | 37885 ft | 427 kts | 232° |
| 2026-05-05 20:18 | 53.02335 | 8.41823 | 37879 ft | 427 kts | 232° |
| 2026-05-05 20:18 | 52.99307 | 8.35359 | 37880 ft | 427 kts | 232° |
| 2026-05-05 20:19 | 52.95657 | 8.27587 | 37860 ft | 427 kts | 232° |
| 2026-05-05 20:19 | 52.92005 | 8.19835 | 37876 ft | 427 kts | 232° |
| 2026-05-05 20:20 | 52.88353 | 8.12107 | 37880 ft | 427 kts | 232° |
| 2026-05-05 20:20 | 52.84683 | 8.04366 | 37875 ft | 428 kts | 231° |
| 2026-05-05 20:21 | 52.81069 | 7.96764 | 37874 ft | 428 kts | 231° |
| 2026-05-05 20:21 | 52.77396 | 7.89062 | 37872 ft | 428 kts | 231° |
| 2026-05-05 20:22 | 52.73705 | 7.81347 | 37865 ft | 428 kts | 231° |
| 2026-05-05 20:22 | 52.70008 | 7.73642 | 37870 ft | 428 kts | 231° |
| 2026-05-05 20:23 | 52.66308 | 7.65955 | 37872 ft | 429 kts | 231° |
| 2026-05-05 20:23 | 52.62605 | 7.58284 | 37879 ft | 429 kts | 231° |
| 2026-05-05 20:24 | 52.58887 | 7.50604 | 37885 ft | 429 kts | 231° |
| 2026-05-05 20:24 | 52.55163 | 7.42938 | 37879 ft | 429 kts | 231° |
| 2026-05-05 20:25 | 52.51429 | 7.35272 | 37873 ft | 430 kts | 230° |
| 2026-05-05 20:25 | 52.47685 | 7.27611 | 37882 ft | 431 kts | 230° |
| 2026-05-05 20:26 | 52.43925 | 7.19938 | 37551 ft | 436 kts | 230° |
| 2026-05-05 20:26 | 52.42061 | 7.16144 | 37054 ft | 433 kts | 230° |
| 2026-05-05 20:26 | 52.40155 | 7.12267 | 36404 ft | 431 kts | 230° |
| 2026-05-05 20:26 | 52.38276 | 7.08451 | 35776 ft | 429 kts | 229° |
| 2026-05-05 20:27 | 52.36402 | 7.04653 | 35084 ft | 429 kts | 229° |
| 2026-05-05 20:27 | 52.34531 | 7.00866 | 34388 ft | 429 kts | 228° |
| 2026-05-05 20:27 | 52.32712 | 6.97191 | 33680 ft | 429 kts | 227° |
| 2026-05-05 20:27 | 52.30837 | 6.93409 | 32876 ft | 429 kts | 227° |
| 2026-05-05 20:28 | 52.28951 | 6.89613 | 32089 ft | 430 kts | 227° |
| 2026-05-05 20:28 | 52.27089 | 6.85868 | 31311 ft | 431 kts | 228° |
| 2026-05-05 20:28 | 52.25169 | 6.82013 | 30493 ft | 433 kts | 228° |
| 2026-05-05 20:28 | 52.23308 | 6.78282 | 29635 ft | 435 kts | 228° |
| 2026-05-05 20:29 | 52.21406 | 6.74474 | 28651 ft | 437 kts | 229° |
| 2026-05-05 20:29 | 52.19485 | 6.70631 | 27707 ft | 437 kts | 229° |
| 2026-05-05 20:29 | 52.17562 | 6.66791 | 26707 ft | 439 kts | 229° |
| 2026-05-05 20:29 | 52.15624 | 6.62927 | 25724 ft | 441 kts | 229° |
| 2026-05-05 20:30 | 52.13692 | 6.59080 | 25033 ft | 436 kts | 229° |
| 2026-05-05 20:30 | 52.11850 | 6.55416 | 24345 ft | 432 kts | 229° |
| 2026-05-05 20:30 | 52.09952 | 6.51649 | 23626 ft | 429 kts | 229° |
| 2026-05-05 20:30 | 52.08063 | 6.47904 | 22804 ft | 428 kts | 229° |
| 2026-05-05 20:31 | 52.06187 | 6.44193 | 22048 ft | 423 kts | 229° |
| 2026-05-05 20:31 | 52.04325 | 6.40511 | 21333 ft | 423 kts | 229° |
| 2026-05-05 20:31 | 52.02434 | 6.36781 | 20618 ft | 431 kts | 229° |
| 2026-05-05 20:31 | 52.00533 | 6.33036 | 19875 ft | 428 kts | 230° |
| 2026-05-05 20:32 | 51.98651 | 6.29332 | 19160 ft | 423 kts | 229° |
| 2026-05-05 20:32 | 51.96763 | 6.25721 | 18557 ft | 417 kts | 226° |
| 2026-05-05 20:32 | 51.94656 | 6.22575 | 18032 ft | 410 kts | 218° |
| 2026-05-05 20:32 | 51.92348 | 6.19936 | 17280 ft | 406 kts | 212° |
| 2026-05-05 20:33 | 51.89985 | 6.17465 | 16565 ft | 403 kts | 212° |
| 2026-05-05 20:33 | 51.87640 | 6.15051 | 15872 ft | 400 kts | 212° |
| 2026-05-05 20:33 | 51.85306 | 6.12648 | 15188 ft | 396 kts | 212° |
| 2026-05-05 20:33 | 51.83061 | 6.10325 | 14527 ft | 393 kts | 212° |
| 2026-05-05 20:34 | 51.80918 | 6.08096 | 13879 ft | 392 kts | 212° |
| 2026-05-05 20:34 | 51.78674 | 6.05756 | 13136 ft | 391 kts | 212° |
| 2026-05-05 20:34 | 51.76402 | 6.03385 | 12419 ft | 388 kts | 212° |
| 2026-05-05 20:34 | 51.74140 | 6.01025 | 11721 ft | 385 kts | 212° |
| 2026-05-05 20:35 | 51.71977 | 5.98770 | 11083 ft | 383 kts | 212° |
| 2026-05-05 20:35 | 51.69817 | 5.96520 | 10926 ft | 367 kts | 212° |
| 2026-05-05 20:35 | 51.67736 | 5.94354 | 10740 ft | 353 kts | 212° |
| 2026-05-05 20:35 | 51.65737 | 5.92277 | 10586 ft | 340 kts | 213° |
| 2026-05-05 20:36 | 51.63784 | 5.90251 | 10442 ft | 328 kts | 213° |
| 2026-05-05 20:36 | 51.61875 | 5.88374 | 10292 ft | 317 kts | 205° |
| 2026-05-05 20:36 | 51.59811 | 5.87266 | 10121 ft | 308 kts | 194° |
| 2026-05-05 20:36 | 51.57780 | 5.86425 | 9977 ft | 299 kts | 194° |
| 2026-05-05 20:37 | 51.55801 | 5.85599 | 9825 ft | 290 kts | 194° |
| 2026-05-05 20:37 | 51.53881 | 5.84777 | 9505 ft | 288 kts | 195° |
| 2026-05-05 20:37 | 51.51942 | 5.83926 | 9177 ft | 287 kts | 195° |
| 2026-05-05 20:37 | 51.50022 | 5.83074 | 8842 ft | 286 kts | 195° |
| 2026-05-05 20:38 | 51.48112 | 5.82223 | 8529 ft | 284 kts | 195° |
| 2026-05-05 20:38 | 51.46210 | 5.81375 | 8219 ft | 282 kts | 195° |
| 2026-05-05 20:38 | 51.44457 | 5.80023 | 7883 ft | 282 kts | 220° |
| 2026-05-05 20:38 | 51.43070 | 5.77832 | 7614 ft | 279 kts | 225° |
| 2026-05-05 20:39 | 51.41718 | 5.75608 | 7309 ft | 278 kts | 225° |
| 2026-05-05 20:39 | 51.40362 | 5.73391 | 7012 ft | 278 kts | 225° |
| 2026-05-05 20:39 | 51.39015 | 5.71203 | 6715 ft | 276 kts | 225° |
| 2026-05-05 20:39 | 51.37663 | 5.69020 | 6421 ft | 275 kts | 225° |
| 2026-05-05 20:40 | 51.36320 | 5.66856 | 6099 ft | 275 kts | 225° |
| 2026-05-05 20:40 | 51.34966 | 5.64681 | 5796 ft | 274 kts | 225° |
| 2026-05-05 20:40 | 51.33838 | 5.62262 | 5487 ft | 272 kts | 249° |
| 2026-05-05 20:40 | 51.33273 | 5.59423 | 5248 ft | 268 kts | 254° |
| 2026-05-05 20:41 | 51.32731 | 5.56573 | 4954 ft | 267 kts | 254° |
| 2026-05-05 20:41 | 51.32189 | 5.53762 | 4684 ft | 265 kts | 254° |
| 2026-05-05 20:41 | 51.31643 | 5.50954 | 4382 ft | 264 kts | 253° |
| 2026-05-05 20:41 | 51.31095 | 5.48159 | 4107 ft | 263 kts | 253° |
| 2026-05-05 20:42 | 51.30550 | 5.45386 | 3921 ft | 259 kts | 253° |
| 2026-05-05 20:42 | 51.30013 | 5.42669 | 3716 ft | 255 kts | 254° |
| 2026-05-05 20:42 | 51.29483 | 5.39986 | 3513 ft | 251 kts | 254° |
| 2026-05-05 20:42 | 51.28968 | 5.37340 | 3307 ft | 248 kts | 258° |
| 2026-05-05 20:43 | 51.28980 | 5.34694 | 3185 ft | 231 kts | 294° |
| 2026-05-05 20:43 | 51.29662 | 5.32457 | 3058 ft | 222 kts | 307° |
| 2026-05-05 20:43 | 51.30509 | 5.30441 | 2869 ft | 218 kts | 310° |
| 2026-05-05 20:43 | 51.31362 | 5.28459 | 2677 ft | 214 kts | 310° |
| 2026-05-05 20:44 | 51.32189 | 5.26539 | 2515 ft | 209 kts | 313° |
| 2026-05-05 20:44 | 51.33259 | 5.25226 | 2322 ft | 186 kts | 353° |
| 2026-05-05 20:44 | 51.34415 | 5.25572 | 2205 ft | 165 kts | 36° |
| 2026-05-05 20:44 | 51.35304 | 5.26564 | 2094 ft | 147 kts | 33° |
| 2026-05-05 20:45 | 51.36865 | 5.28273 | 1871 ft | 126 kts | 36° |
| 2026-05-05 20:45 | 51.37561 | 5.29063 | 1717 ft | 120 kts | 37° |
| 2026-05-05 20:45 | 51.38230 | 5.29818 | 1552 ft | 118 kts | 36° |
| 2026-05-05 20:46 | 51.38911 | 5.30586 | 1408 ft | 121 kts | 35° |
| 2026-05-05 20:46 | 51.39621 | 5.31358 | 1284 ft | 124 kts | 36° |
| 2026-05-05 20:46 | 51.40334 | 5.32174 | 1108 ft | 127 kts | 35° |
| 2026-05-05 20:46 | 51.41074 | 5.33005 | 908 ft | 133 kts | 36° |
| 2026-05-05 20:47 | 51.41855 | 5.33887 | 707 ft | 138 kts | 35° |
| 2026-05-05 20:47 | 51.42636 | 5.34768 | 484 ft | 137 kts | 34° |
| 2026-05-05 20:47 | 51.43412 | 5.35647 | 307 ft | 137 kts | 35° |
| 2026-05-05 20:47 | 51.44173 | 5.36504 | 105 ft | 131 kts | 34° |
| 2026-05-05 20:48 | 51.44861 | 5.37279 | 74 ft | 107 kts | 36° |
| 2026-05-05 20:48 | 51.45370 | 5.37851 | 81 ft | 73 kts | 35° |
| 2026-05-05 20:48 | 51.45688 | 5.38205 | 71 ft | 39 kts | 34° |
| 2026-05-05 20:48 | 51.45828 | 5.38360 | 69 ft | 19 kts | 34° |
| 2026-05-05 20:49 | 51.45929 | 5.38489 | 69 ft | 18 kts | 50° |
| 2026-05-05 20:49 | 51.46019 | 5.38579 | 73 ft | 13 kts | 31° |
| 2026-05-05 20:49 | 51.46087 | 5.38668 | 75 ft | 13 kts | 64° |
| 2026-05-05 20:49 | 51.46055 | 5.38795 | 72 ft | 13 kts | 123° |
| 2026-05-05 20:50 | 51.46005 | 5.38914 | 72 ft | 14 kts | 126° |
| 2026-05-05 20:50 | 51.45981 | 5.38964 | 72 ft | 1 kts | 126° |
| 2026-05-05 20:50 | 51.45970 | 5.38989 | 68 ft | 4 kts | 126° |
| 2026-05-05 20:50 | 51.45961 | 5.39032 | 73 ft | 4 kts | 103° |
| 2026-05-05 20:51 | 51.45949 | 5.39076 | 67 ft | 4 kts | 119° |
| 2026-05-05 20:51 | 51.45935 | 5.39111 | 70 ft | 0 kts | 123° |
| 2026-05-05 20:51 | 51.45933 | 5.39116 | 65 ft | 2 kts | 124° |
| 2026-05-05 20:51 | 51.45930 | 5.39123 | 65 ft | 0 kts | 124° |
| 2026-05-05 20:52 | 51.45926 | 5.39133 | 68 ft | 0 kts | 124° |